sensor_id;sensor_type;location;lat;lon;timestamp;P1;durP1;ratioP1;P2;durP2;ratioP2
21233;SDS011;10774;42.178;26.578;2023-11-21T00:00:04;8.95;;;6.13;;
21233;SDS011;10774;42.178;26.578;2023-11-21T00:02:35;9.10;;;7.38;;
21233;SDS011;10774;42.178;26.578;2023-11-21T00:05:01;9.90;;;7.53;;
21233;SDS011;10774;42.178;26.578;2023-11-21T00:07:28;13.73;;;10.57;;
21233;SDS011;10774;42.178;26.578;2023-11-21T00:09:53;16.02;;;10.50;;
21233;SDS011;10774;42.178;26.578;2023-11-21T00:12:21;16.77;;;11.52;;
21233;SDS011;10774;42.178;26.578;2023-11-21T00:14:46;19.17;;;11.50;;
21233;SDS011;10774;42.178;26.578;2023-11-21T00:17:12;18.60;;;11.70;;
21233;SDS011;10774;42.178;26.578;2023-11-21T00:19:37;21.25;;;12.23;;
21233;SDS011;10774;42.178;26.578;2023-11-21T00:22:03;21.73;;;12.93;;
21233;SDS011;10774;42.178;26.578;2023-11-21T00:24:28;19.95;;;13.07;;
21233;SDS011;10774;42.178;26.578;2023-11-21T00:26:53;19.45;;;11.02;;
21233;SDS011;10774;42.178;26.578;2023-11-21T00:29:19;14.85;;;9.52;;
21233;SDS011;10774;42.178;26.578;2023-11-21T00:31:44;10.40;;;7.53;;
21233;SDS011;10774;42.178;26.578;2023-11-21T00:34:13;7.18;;;5.28;;
21233;SDS011;10774;42.178;26.578;2023-11-21T00:36:38;8.52;;;5.45;;
21233;SDS011;10774;42.178;26.578;2023-11-21T00:39:04;7.82;;;5.35;;
21233;SDS011;10774;42.178;26.578;2023-11-21T00:41:31;7.57;;;4.80;;
21233;SDS011;10774;42.178;26.578;2023-11-21T00:43:56;6.20;;;4.30;;
21233;SDS011;10774;42.178;26.578;2023-11-21T00:46:22;7.25;;;4.15;;
21233;SDS011;10774;42.178;26.578;2023-11-21T00:48:49;6.20;;;4.78;;
21233;SDS011;10774;42.178;26.578;2023-11-21T00:51:14;33.75;;;17.13;;
21233;SDS011;10774;42.178;26.578;2023-11-21T00:53:40;16.92;;;9.23;;
21233;SDS011;10774;42.178;26.578;2023-11-21T00:56:05;12.80;;;8.80;;
21233;SDS011;10774;42.178;26.578;2023-11-21T00:58:31;12.18;;;8.07;;
21233;SDS011;10774;42.178;26.578;2023-11-21T01:03:32;10.52;;;7.93;;
21233;SDS011;10774;42.178;26.578;2023-11-21T01:05:57;11.07;;;7.63;;
21233;SDS011;10774;42.178;26.578;2023-11-21T01:08:24;10.88;;;8.50;;
21233;SDS011;10774;42.178;26.578;2023-11-21T01:10:49;11.38;;;8.57;;
21233;SDS011;10774;42.178;26.578;2023-11-21T01:13:14;9.48;;;7.55;;
21233;SDS011;10774;42.178;26.578;2023-11-21T01:15:40;14.80;;;10.70;;
21233;SDS011;10774;42.178;26.578;2023-11-21T01:18:06;9.52;;;7.10;;
21233;SDS011;10774;42.178;26.578;2023-11-21T01:20:33;9.88;;;7.57;;
21233;SDS011;10774;42.178;26.578;2023-11-21T01:22:59;7.70;;;6.90;;
21233;SDS011;10774;42.178;26.578;2023-11-21T01:25:24;7.72;;;6.63;;
21233;SDS011;10774;42.178;26.578;2023-11-21T01:27:51;10.23;;;7.32;;
21233;SDS011;10774;42.178;26.578;2023-11-21T01:30:17;13.35;;;9.20;;
21233;SDS011;10774;42.178;26.578;2023-11-21T01:32:43;16.63;;;12.48;;
21233;SDS011;10774;42.178;26.578;2023-11-21T01:35:09;23.67;;;17.38;;
21233;SDS011;10774;42.178;26.578;2023-11-21T01:37:35;23.38;;;17.13;;
21233;SDS011;10774;42.178;26.578;2023-11-21T01:40:01;27.35;;;18.23;;
21233;SDS011;10774;42.178;26.578;2023-11-21T01:42:30;17.52;;;13.23;;
21233;SDS011;10774;42.178;26.578;2023-11-21T01:44:55;9.95;;;8.40;;
21233;SDS011;10774;42.178;26.578;2023-11-21T01:47:20;18.15;;;11.75;;
21233;SDS011;10774;42.178;26.578;2023-11-21T01:49:46;53.80;;;27.35;;
21233;SDS011;10774;42.178;26.578;2023-11-21T01:52:13;46.85;;;23.58;;
21233;SDS011;10774;42.178;26.578;2023-11-21T01:54:39;15.60;;;9.60;;
21233;SDS011;10774;42.178;26.578;2023-11-21T01:57:06;9.10;;;5.50;;
21233;SDS011;10774;42.178;26.578;2023-11-21T01:59:35;5.47;;;4.75;;
21233;SDS011;10774;42.178;26.578;2023-11-21T02:02:05;4.60;;;4.00;;
21233;SDS011;10774;42.178;26.578;2023-11-21T02:04:34;5.72;;;4.40;;
21233;SDS011;10774;42.178;26.578;2023-11-21T02:07:01;5.80;;;4.47;;
21233;SDS011;10774;42.178;26.578;2023-11-21T02:09:30;6.55;;;4.35;;
21233;SDS011;10774;42.178;26.578;2023-11-21T02:11:58;6.60;;;4.30;;
21233;SDS011;10774;42.178;26.578;2023-11-21T02:14:24;8.80;;;5.72;;
21233;SDS011;10774;42.178;26.578;2023-11-21T02:16:51;9.30;;;7.55;;
21233;SDS011;10774;42.178;26.578;2023-11-21T02:19:18;8.38;;;6.80;;
21233;SDS011;10774;42.178;26.578;2023-11-21T02:21:47;9.50;;;6.75;;
21233;SDS011;10774;42.178;26.578;2023-11-21T02:24:15;8.80;;;6.40;;
21233;SDS011;10774;42.178;26.578;2023-11-21T02:26:40;9.52;;;6.43;;
21233;SDS011;10774;42.178;26.578;2023-11-21T02:29:06;10.30;;;7.85;;
21233;SDS011;10774;42.178;26.578;2023-11-21T02:31:35;10.23;;;7.97;;
21233;SDS011;10774;42.178;26.578;2023-11-21T02:34:02;11.45;;;8.43;;
21233;SDS011;10774;42.178;26.578;2023-11-21T02:36:28;13.10;;;8.65;;
21233;SDS011;10774;42.178;26.578;2023-11-21T02:38:53;11.38;;;8.35;;
21233;SDS011;10774;42.178;26.578;2023-11-21T02:41:19;9.80;;;7.70;;
21233;SDS011;10774;42.178;26.578;2023-11-21T02:43:44;11.35;;;8.50;;
21233;SDS011;10774;42.178;26.578;2023-11-21T02:46:10;10.05;;;8.60;;
21233;SDS011;10774;42.178;26.578;2023-11-21T02:48:35;12.75;;;8.88;;
21233;SDS011;10774;42.178;26.578;2023-11-21T02:51:01;11.68;;;9.30;;
21233;SDS011;10774;42.178;26.578;2023-11-21T02:53:26;10.93;;;7.95;;
21233;SDS011;10774;42.178;26.578;2023-11-21T02:55:51;15.00;;;9.85;;
21233;SDS011;10774;42.178;26.578;2023-11-21T02:58:17;12.75;;;9.38;;
21233;SDS011;10774;42.178;26.578;2023-11-21T03:00:42;15.93;;;12.57;;
21233;SDS011;10774;42.178;26.578;2023-11-21T03:03:08;19.00;;;15.20;;
21233;SDS011;10774;42.178;26.578;2023-11-21T03:05:33;14.80;;;11.48;;
21233;SDS011;10774;42.178;26.578;2023-11-21T03:08:00;17.38;;;11.80;;
21233;SDS011;10774;42.178;26.578;2023-11-21T03:10:26;10.55;;;8.98;;
21233;SDS011;10774;42.178;26.578;2023-11-21T03:12:52;9.65;;;7.57;;
21233;SDS011;10774;42.178;26.578;2023-11-21T03:15:17;6.43;;;5.75;;
21233;SDS011;10774;42.178;26.578;2023-11-21T03:17:43;6.10;;;5.00;;
21233;SDS011;10774;42.178;26.578;2023-11-21T03:20:09;8.05;;;5.10;;
21233;SDS011;10774;42.178;26.578;2023-11-21T03:22:36;9.32;;;5.85;;
21233;SDS011;10774;42.178;26.578;2023-11-21T03:25:02;8.07;;;5.20;;
21233;SDS011;10774;42.178;26.578;2023-11-21T03:27:28;8.93;;;5.43;;
21233;SDS011;10774;42.178;26.578;2023-11-21T03:29:53;8.35;;;5.30;;
21233;SDS011;10774;42.178;26.578;2023-11-21T03:32:19;5.70;;;4.65;;
21233;SDS011;10774;42.178;26.578;2023-11-21T03:34:54;7.50;;;4.95;;
21233;SDS011;10774;42.178;26.578;2023-11-21T03:37:22;13.45;;;7.85;;
21233;SDS011;10774;42.178;26.578;2023-11-21T03:39:47;10.18;;;7.07;;
21233;SDS011;10774;42.178;26.578;2023-11-21T03:42:13;13.00;;;8.68;;
21233;SDS011;10774;42.178;26.578;2023-11-21T03:44:38;13.43;;;9.82;;
21233;SDS011;10774;42.178;26.578;2023-11-21T03:47:04;11.35;;;8.63;;
21233;SDS011;10774;42.178;26.578;2023-11-21T03:49:30;13.57;;;9.98;;
21233;SDS011;10774;42.178;26.578;2023-11-21T03:51:56;15.90;;;11.38;;
21233;SDS011;10774;42.178;26.578;2023-11-21T03:54:21;16.42;;;10.95;;
21233;SDS011;10774;42.178;26.578;2023-11-21T03:56:47;15.15;;;11.07;;
21233;SDS011;10774;42.178;26.578;2023-11-21T03:59:12;15.05;;;11.60;;
21233;SDS011;10774;42.178;26.578;2023-11-21T04:01:37;14.20;;;10.88;;
21233;SDS011;10774;42.178;26.578;2023-11-21T04:04:04;14.90;;;11.95;;
21233;SDS011;10774;42.178;26.578;2023-11-21T04:06:30;25.35;;;17.27;;
21233;SDS011;10774;42.178;26.578;2023-11-21T04:08:57;25.50;;;16.90;;
21233;SDS011;10774;42.178;26.578;2023-11-21T04:11:23;22.20;;;14.57;;
21233;SDS011;10774;42.178;26.578;2023-11-21T04:13:48;18.30;;;13.32;;
21233;SDS011;10774;42.178;26.578;2023-11-21T04:16:14;16.65;;;12.50;;
21233;SDS011;10774;42.178;26.578;2023-11-21T04:18:39;16.63;;;10.80;;
21233;SDS011;10774;42.178;26.578;2023-11-21T04:21:05;14.63;;;10.75;;
21233;SDS011;10774;42.178;26.578;2023-11-21T04:23:31;13.50;;;9.73;;
21233;SDS011;10774;42.178;26.578;2023-11-21T04:25:57;9.80;;;8.65;;
21233;SDS011;10774;42.178;26.578;2023-11-21T04:28:23;12.68;;;7.38;;
21233;SDS011;10774;42.178;26.578;2023-11-21T04:30:49;9.27;;;5.63;;
21233;SDS011;10774;42.178;26.578;2023-11-21T04:33:15;7.85;;;6.10;;
21233;SDS011;10774;42.178;26.578;2023-11-21T04:35:41;20.90;;;14.23;;
21233;SDS011;10774;42.178;26.578;2023-11-21T04:38:06;19.90;;;13.93;;
21233;SDS011;10774;42.178;26.578;2023-11-21T04:40:32;15.75;;;13.05;;
21233;SDS011;10774;42.178;26.578;2023-11-21T04:42:57;18.52;;;13.57;;
21233;SDS011;10774;42.178;26.578;2023-11-21T04:45:23;19.65;;;16.63;;
21233;SDS011;10774;42.178;26.578;2023-11-21T04:47:48;22.42;;;19.98;;
21233;SDS011;10774;42.178;26.578;2023-11-21T04:50:14;17.23;;;13.70;;
21233;SDS011;10774;42.178;26.578;2023-11-21T04:52:39;17.70;;;12.20;;
21233;SDS011;10774;42.178;26.578;2023-11-21T04:55:05;11.00;;;9.77;;
21233;SDS011;10774;42.178;26.578;2023-11-21T04:57:34;47.95;;;31.90;;
21233;SDS011;10774;42.178;26.578;2023-11-21T05:00:00;32.05;;;24.10;;
21233;SDS011;10774;42.178;26.578;2023-11-21T05:02:25;35.00;;;24.52;;
21233;SDS011;10774;42.178;26.578;2023-11-21T05:04:51;29.55;;;20.77;;
21233;SDS011;10774;42.178;26.578;2023-11-21T05:07:16;33.78;;;19.60;;
21233;SDS011;10774;42.178;26.578;2023-11-21T05:09:45;20.30;;;13.57;;
21233;SDS011;10774;42.178;26.578;2023-11-21T05:12:11;18.60;;;11.50;;
21233;SDS011;10774;42.178;26.578;2023-11-21T05:14:37;14.10;;;9.95;;
21233;SDS011;10774;42.178;26.578;2023-11-21T05:17:03;16.33;;;11.27;;
21233;SDS011;10774;42.178;26.578;2023-11-21T05:19:29;24.85;;;13.32;;
21233;SDS011;10774;42.178;26.578;2023-11-21T05:21:55;23.80;;;12.43;;
21233;SDS011;10774;42.178;26.578;2023-11-21T05:24:20;21.00;;;10.80;;
21233;SDS011;10774;42.178;26.578;2023-11-21T05:26:45;19.05;;;10.88;;
21233;SDS011;10774;42.178;26.578;2023-11-21T05:29:11;25.83;;;12.93;;
21233;SDS011;10774;42.178;26.578;2023-11-21T05:31:36;49.08;;;27.33;;
21233;SDS011;10774;42.178;26.578;2023-11-21T05:34:03;48.38;;;34.20;;
21233;SDS011;10774;42.178;26.578;2023-11-21T05:36:30;87.40;;;51.28;;
21233;SDS011;10774;42.178;26.578;2023-11-21T05:38:56;65.82;;;44.50;;
21233;SDS011;10774;42.178;26.578;2023-11-21T05:41:21;60.72;;;41.22;;
21233;SDS011;10774;42.178;26.578;2023-11-21T05:43:48;46.00;;;30.35;;
21233;SDS011;10774;42.178;26.578;2023-11-21T05:46:13;53.15;;;32.33;;
21233;SDS011;10774;42.178;26.578;2023-11-21T05:48:39;44.85;;;28.25;;
21233;SDS011;10774;42.178;26.578;2023-11-21T05:51:05;44.20;;;27.05;;
21233;SDS011;10774;42.178;26.578;2023-11-21T05:53:31;59.50;;;32.50;;
21233;SDS011;10774;42.178;26.578;2023-11-21T05:55:56;80.25;;;51.65;;
21233;SDS011;10774;42.178;26.578;2023-11-21T05:58:22;76.65;;;45.13;;
21233;SDS011;10774;42.178;26.578;2023-11-21T06:00:48;79.60;;;49.40;;
21233;SDS011;10774;42.178;26.578;2023-11-21T06:03:14;66.75;;;45.65;;
21233;SDS011;10774;42.178;26.578;2023-11-21T06:05:39;66.32;;;44.10;;
21233;SDS011;10774;42.178;26.578;2023-11-21T06:08:05;63.15;;;43.00;;
21233;SDS011;10774;42.178;26.578;2023-11-21T06:10:32;71.05;;;48.10;;
21233;SDS011;10774;42.178;26.578;2023-11-21T06:12:58;71.18;;;48.70;;
21233;SDS011;10774;42.178;26.578;2023-11-21T06:15:23;70.75;;;48.60;;
21233;SDS011;10774;42.178;26.578;2023-11-21T06:17:49;85.15;;;63.00;;
21233;SDS011;10774;42.178;26.578;2023-11-21T06:20:17;76.57;;;54.90;;
21233;SDS011;10774;42.178;26.578;2023-11-21T06:22:44;60.42;;;46.00;;
21233;SDS011;10774;42.178;26.578;2023-11-21T06:25:12;58.35;;;42.25;;
21233;SDS011;10774;42.178;26.578;2023-11-21T06:27:39;81.13;;;56.25;;
21233;SDS011;10774;42.178;26.578;2023-11-21T06:30:06;95.43;;;62.88;;
21233;SDS011;10774;42.178;26.578;2023-11-21T06:32:34;109.80;;;75.90;;
21233;SDS011;10774;42.178;26.578;2023-11-21T06:35:01;172.52;;;123.88;;
21233;SDS011;10774;42.178;26.578;2023-11-21T06:37:28;107.75;;;77.03;;
21233;SDS011;10774;42.178;26.578;2023-11-21T06:39:54;124.88;;;92.07;;
21233;SDS011;10774;42.178;26.578;2023-11-21T06:42:23;84.05;;;60.10;;
21233;SDS011;10774;42.178;26.578;2023-11-21T06:44:49;68.85;;;47.83;;
21233;SDS011;10774;42.178;26.578;2023-11-21T06:47:35;53.78;;;38.40;;
21233;SDS011;10774;42.178;26.578;2023-11-21T06:50:01;51.58;;;34.00;;
21233;SDS011;10774;42.178;26.578;2023-11-21T06:52:27;52.67;;;38.45;;
21233;SDS011;10774;42.178;26.578;2023-11-21T06:54:52;77.97;;;53.65;;
21233;SDS011;10774;42.178;26.578;2023-11-21T06:57:18;109.65;;;80.30;;
21233;SDS011;10774;42.178;26.578;2023-11-21T06:59:44;85.85;;;60.33;;
21233;SDS011;10774;42.178;26.578;2023-11-21T07:02:10;85.65;;;60.42;;
21233;SDS011;10774;42.178;26.578;2023-11-21T07:04:35;83.85;;;62.33;;
21233;SDS011;10774;42.178;26.578;2023-11-21T07:07:04;92.82;;;64.00;;
21233;SDS011;10774;42.178;26.578;2023-11-21T07:09:31;84.40;;;57.17;;
21233;SDS011;10774;42.178;26.578;2023-11-21T07:11:57;82.57;;;53.70;;
21233;SDS011;10774;42.178;26.578;2023-11-21T07:14:23;78.35;;;50.50;;
21233;SDS011;10774;42.178;26.578;2023-11-21T07:16:48;75.82;;;50.05;;
21233;SDS011;10774;42.178;26.578;2023-11-21T07:19:14;89.28;;;58.80;;
21233;SDS011;10774;42.178;26.578;2023-11-21T07:21:39;85.25;;;57.72;;
21233;SDS011;10774;42.178;26.578;2023-11-21T07:24:06;78.25;;;53.20;;
21233;SDS011;10774;42.178;26.578;2023-11-21T07:26:32;101.95;;;68.18;;
21233;SDS011;10774;42.178;26.578;2023-11-21T07:28:59;78.35;;;55.72;;
21233;SDS011;10774;42.178;26.578;2023-11-21T07:31:25;76.57;;;51.10;;
21233;SDS011;10774;42.178;26.578;2023-11-21T07:33:51;70.65;;;45.78;;
21233;SDS011;10774;42.178;26.578;2023-11-21T07:36:17;63.92;;;43.38;;
21233;SDS011;10774;42.178;26.578;2023-11-21T07:38:48;59.80;;;45.13;;
21233;SDS011;10774;42.178;26.578;2023-11-21T07:41:14;68.82;;;46.28;;
21233;SDS011;10774;42.178;26.578;2023-11-21T07:43:43;70.90;;;46.17;;
21233;SDS011;10774;42.178;26.578;2023-11-21T07:46:10;64.55;;;45.65;;
21233;SDS011;10774;42.178;26.578;2023-11-21T07:48:37;68.15;;;47.78;;
21233;SDS011;10774;42.178;26.578;2023-11-21T07:51:03;81.97;;;47.22;;
21233;SDS011;10774;42.178;26.578;2023-11-21T07:53:29;75.03;;;48.15;;
21233;SDS011;10774;42.178;26.578;2023-11-21T07:56:07;72.35;;;47.90;;
21233;SDS011;10774;42.178;26.578;2023-11-21T07:58:34;53.67;;;39.50;;
21233;SDS011;10774;42.178;26.578;2023-11-21T08:01:00;57.58;;;36.33;;
21233;SDS011;10774;42.178;26.578;2023-11-21T08:03:26;50.78;;;37.33;;
21233;SDS011;10774;42.178;26.578;2023-11-21T08:05:52;60.55;;;43.85;;
21233;SDS011;10774;42.178;26.578;2023-11-21T08:08:18;59.42;;;41.25;;
21233;SDS011;10774;42.178;26.578;2023-11-21T08:10:44;54.47;;;38.13;;
21233;SDS011;10774;42.178;26.578;2023-11-21T08:13:27;56.80;;;37.72;;
21233;SDS011;10774;42.178;26.578;2023-11-21T08:15:56;58.22;;;33.60;;
21233;SDS011;10774;42.178;26.578;2023-11-21T08:18:28;58.50;;;32.28;;
21233;SDS011;10774;42.178;26.578;2023-11-21T08:20:54;58.25;;;30.77;;
21233;SDS011;10774;42.178;26.578;2023-11-21T08:23:20;38.05;;;23.92;;
21233;SDS011;10774;42.178;26.578;2023-11-21T08:25:50;38.67;;;26.63;;
21233;SDS011;10774;42.178;26.578;2023-11-21T08:28:16;47.40;;;27.08;;
21233;SDS011;10774;42.178;26.578;2023-11-21T08:30:41;39.78;;;26.73;;
21233;SDS011;10774;42.178;26.578;2023-11-21T08:33:07;43.55;;;27.02;;
21233;SDS011;10774;42.178;26.578;2023-11-21T08:35:33;44.20;;;27.80;;
21233;SDS011;10774;42.178;26.578;2023-11-21T08:37:59;41.00;;;26.95;;
21233;SDS011;10774;42.178;26.578;2023-11-21T08:40:24;40.03;;;27.70;;
21233;SDS011;10774;42.178;26.578;2023-11-21T08:42:50;39.50;;;26.10;;
21233;SDS011;10774;42.178;26.578;2023-11-21T08:45:17;42.70;;;26.33;;
21233;SDS011;10774;42.178;26.578;2023-11-21T08:47:44;37.45;;;23.40;;
21233;SDS011;10774;42.178;26.578;2023-11-21T08:50:10;34.10;;;23.50;;
21233;SDS011;10774;42.178;26.578;2023-11-21T08:52:37;38.15;;;24.98;;
21233;SDS011;10774;42.178;26.578;2023-11-21T08:55:03;38.17;;;24.05;;
21233;SDS011;10774;42.178;26.578;2023-11-21T08:57:35;34.35;;;24.98;;
21233;SDS011;10774;42.178;26.578;2023-11-21T09:00:02;45.95;;;24.58;;
21233;SDS011;10774;42.178;26.578;2023-11-21T09:02:32;35.90;;;26.23;;
21233;SDS011;10774;42.178;26.578;2023-11-21T09:04:59;33.33;;;23.17;;
21233;SDS011;10774;42.178;26.578;2023-11-21T09:07:24;33.15;;;24.17;;
21233;SDS011;10774;42.178;26.578;2023-11-21T09:09:50;33.47;;;23.75;;
21233;SDS011;10774;42.178;26.578;2023-11-21T09:12:16;29.55;;;21.15;;
21233;SDS011;10774;42.178;26.578;2023-11-21T09:14:42;37.58;;;22.83;;
21233;SDS011;10774;42.178;26.578;2023-11-21T09:17:09;29.50;;;20.40;;
21233;SDS011;10774;42.178;26.578;2023-11-21T09:19:38;23.75;;;15.55;;
21233;SDS011;10774;42.178;26.578;2023-11-21T09:22:03;23.55;;;17.05;;
21233;SDS011;10774;42.178;26.578;2023-11-21T09:24:30;34.47;;;22.75;;
21233;SDS011;10774;42.178;26.578;2023-11-21T09:26:56;32.92;;;24.15;;
21233;SDS011;10774;42.178;26.578;2023-11-21T09:29:21;35.60;;;22.85;;
21233;SDS011;10774;42.178;26.578;2023-11-21T09:31:47;39.72;;;23.35;;
21233;SDS011;10774;42.178;26.578;2023-11-21T09:34:13;35.67;;;24.27;;
21233;SDS011;10774;42.178;26.578;2023-11-21T09:36:38;36.95;;;25.17;;
21233;SDS011;10774;42.178;26.578;2023-11-21T09:39:04;34.40;;;24.73;;
21233;SDS011;10774;42.178;26.578;2023-11-21T09:41:49;31.65;;;22.55;;
21233;SDS011;10774;42.178;26.578;2023-11-21T09:47:01;30.23;;;19.80;;
21233;SDS011;10774;42.178;26.578;2023-11-21T09:49:28;28.85;;;19.73;;
21233;SDS011;10774;42.178;26.578;2023-11-21T09:51:57;25.35;;;18.10;;
21233;SDS011;10774;42.178;26.578;2023-11-21T09:54:28;20.42;;;14.40;;
21233;SDS011;10774;42.178;26.578;2023-11-21T09:56:56;20.92;;;12.63;;
21233;SDS011;10774;42.178;26.578;2023-11-21T09:59:25;23.08;;;12.95;;
21233;SDS011;10774;42.178;26.578;2023-11-21T10:01:55;15.30;;;9.65;;
21233;SDS011;10774;42.178;26.578;2023-11-21T10:04:23;11.57;;;7.72;;
21233;SDS011;10774;42.178;26.578;2023-11-21T10:06:49;8.82;;;5.53;;
21233;SDS011;10774;42.178;26.578;2023-11-21T10:09:16;9.05;;;3.70;;
21233;SDS011;10774;42.178;26.578;2023-11-21T10:11:42;8.35;;;4.65;;
21233;SDS011;10774;42.178;26.578;2023-11-21T10:14:12;7.85;;;5.28;;
21233;SDS011;10774;42.178;26.578;2023-11-21T10:16:39;8.63;;;5.30;;
21233;SDS011;10774;42.178;26.578;2023-11-21T10:19:06;9.70;;;6.30;;
21233;SDS011;10774;42.178;26.578;2023-11-21T10:21:35;12.70;;;6.53;;
21233;SDS011;10774;42.178;26.578;2023-11-21T10:24:00;9.18;;;5.35;;
21233;SDS011;10774;42.178;26.578;2023-11-21T10:26:26;7.40;;;3.50;;
21233;SDS011;10774;42.178;26.578;2023-11-21T10:28:57;4.78;;;2.90;;
21233;SDS011;10774;42.178;26.578;2023-11-21T10:31:24;5.35;;;3.10;;
21233;SDS011;10774;42.178;26.578;2023-11-21T10:33:52;4.22;;;2.65;;
21233;SDS011;10774;42.178;26.578;2023-11-21T10:36:27;7.07;;;2.90;;
21233;SDS011;10774;42.178;26.578;2023-11-21T10:38:53;4.53;;;2.72;;
21233;SDS011;10774;42.178;26.578;2023-11-21T10:41:20;5.60;;;2.70;;
21233;SDS011;10774;42.178;26.578;2023-11-21T10:43:45;6.22;;;2.28;;
21233;SDS011;10774;42.178;26.578;2023-11-21T10:46:11;8.75;;;3.03;;
21233;SDS011;10774;42.178;26.578;2023-11-21T10:48:36;11.10;;;3.97;;
21233;SDS011;10774;42.178;26.578;2023-11-21T10:51:06;8.32;;;3.80;;
21233;SDS011;10774;42.178;26.578;2023-11-21T10:53:38;6.60;;;3.85;;
21233;SDS011;10774;42.178;26.578;2023-11-21T10:56:08;7.82;;;4.10;;
21233;SDS011;10774;42.178;26.578;2023-11-21T10:58:42;8.35;;;3.67;;
21233;SDS011;10774;42.178;26.578;2023-11-21T11:01:08;4.97;;;3.15;;
21233;SDS011;10774;42.178;26.578;2023-11-21T11:03:39;5.55;;;3.67;;
21233;SDS011;10774;42.178;26.578;2023-11-21T11:06:06;7.55;;;3.80;;
21233;SDS011;10774;42.178;26.578;2023-11-21T11:08:39;7.20;;;4.40;;
21233;SDS011;10774;42.178;26.578;2023-11-21T11:11:05;5.93;;;4.00;;
21233;SDS011;10774;42.178;26.578;2023-11-21T11:13:31;8.45;;;4.65;;
21233;SDS011;10774;42.178;26.578;2023-11-21T11:16:00;13.05;;;5.47;;
21233;SDS011;10774;42.178;26.578;2023-11-21T11:18:32;14.52;;;6.80;;
21233;SDS011;10774;42.178;26.578;2023-11-21T11:21:07;7.75;;;5.40;;
21233;SDS011;10774;42.178;26.578;2023-11-21T11:26:51;14.13;;;6.28;;
21233;SDS011;10774;42.178;26.578;2023-11-21T11:30:02;10.73;;;6.18;;
21233;SDS011;10774;42.178;26.578;2023-11-21T11:33:07;10.90;;;6.60;;
21233;SDS011;10774;42.178;26.578;2023-11-21T11:38:30;10.38;;;6.63;;
21233;SDS011;10774;42.178;26.578;2023-11-21T11:40:57;12.68;;;6.93;;
21233;SDS011;10774;42.178;26.578;2023-11-21T11:43:28;7.57;;;5.80;;
21233;SDS011;10774;42.178;26.578;2023-11-21T11:45:56;10.88;;;8.10;;
21233;SDS011;10774;42.178;26.578;2023-11-21T11:48:24;8.05;;;6.63;;
21233;SDS011;10774;42.178;26.578;2023-11-21T11:53:42;12.57;;;7.50;;
21233;SDS011;10774;42.178;26.578;2023-11-21T11:56:24;10.70;;;6.32;;
21233;SDS011;10774;42.178;26.578;2023-11-21T11:58:52;9.65;;;7.22;;
21233;SDS011;10774;42.178;26.578;2023-11-21T12:01:19;10.23;;;6.97;;
21233;SDS011;10774;42.178;26.578;2023-11-21T12:04:10;11.32;;;6.97;;
21233;SDS011;10774;42.178;26.578;2023-11-21T12:06:40;10.23;;;7.05;;
21233;SDS011;10774;42.178;26.578;2023-11-21T12:09:07;9.00;;;6.40;;
21233;SDS011;10774;42.178;26.578;2023-11-21T12:11:43;9.07;;;6.53;;
21233;SDS011;10774;42.178;26.578;2023-11-21T12:14:09;10.48;;;6.45;;
21233;SDS011;10774;42.178;26.578;2023-11-21T12:16:34;12.70;;;6.68;;
21233;SDS011;10774;42.178;26.578;2023-11-21T12:19:00;10.23;;;7.07;;
21233;SDS011;10774;42.178;26.578;2023-11-21T12:21:25;9.30;;;6.30;;
21233;SDS011;10774;42.178;26.578;2023-11-21T12:23:52;11.05;;;8.00;;
21233;SDS011;10774;42.178;26.578;2023-11-21T12:26:18;12.02;;;7.88;;
21233;SDS011;10774;42.178;26.578;2023-11-21T12:28:43;11.02;;;8.32;;
21233;SDS011;10774;42.178;26.578;2023-11-21T12:31:08;14.15;;;7.13;;
21233;SDS011;10774;42.178;26.578;2023-11-21T12:33:35;14.30;;;8.35;;
21233;SDS011;10774;42.178;26.578;2023-11-21T12:36:01;13.25;;;7.78;;
21233;SDS011;10774;42.178;26.578;2023-11-21T12:38:36;11.77;;;8.25;;
21233;SDS011;10774;42.178;26.578;2023-11-21T12:41:01;9.40;;;7.57;;
21233;SDS011;10774;42.178;26.578;2023-11-21T12:43:27;10.88;;;8.20;;
21233;SDS011;10774;42.178;26.578;2023-11-21T12:46:07;15.40;;;8.23;;
21233;SDS011;10774;42.178;26.578;2023-11-21T12:48:36;11.43;;;7.75;;
21233;SDS011;10774;42.178;26.578;2023-11-21T12:51:09;11.70;;;8.50;;
21233;SDS011;10774;42.178;26.578;2023-11-21T12:53:43;11.00;;;7.95;;
21233;SDS011;10774;42.178;26.578;2023-11-21T12:56:12;14.10;;;9.15;;
21233;SDS011;10774;42.178;26.578;2023-11-21T12:58:38;11.88;;;8.07;;
21233;SDS011;10774;42.178;26.578;2023-11-21T13:01:05;11.93;;;8.48;;
21233;SDS011;10774;42.178;26.578;2023-11-21T13:03:36;12.07;;;9.48;;
21233;SDS011;10774;42.178;26.578;2023-11-21T13:06:02;15.68;;;8.68;;
21233;SDS011;10774;42.178;26.578;2023-11-21T13:08:30;13.73;;;10.00;;
21233;SDS011;10774;42.178;26.578;2023-11-21T13:10:56;16.27;;;10.50;;
21233;SDS011;10774;42.178;26.578;2023-11-21T13:13:23;17.85;;;11.18;;
21233;SDS011;10774;42.178;26.578;2023-11-21T13:15:56;15.65;;;10.20;;
21233;SDS011;10774;42.178;26.578;2023-11-21T13:18:29;10.65;;;7.90;;
21233;SDS011;10774;42.178;26.578;2023-11-21T13:20:56;10.23;;;7.75;;
21233;SDS011;10774;42.178;26.578;2023-11-21T13:23:24;10.93;;;7.38;;
21233;SDS011;10774;42.178;26.578;2023-11-21T13:25:50;11.40;;;6.90;;
21233;SDS011;10774;42.178;26.578;2023-11-21T13:28:16;9.80;;;6.85;;
21233;SDS011;10774;42.178;26.578;2023-11-21T13:30:43;13.73;;;8.15;;
21233;SDS011;10774;42.178;26.578;2023-11-21T13:33:09;13.13;;;8.70;;
21233;SDS011;10774;42.178;26.578;2023-11-21T13:35:42;11.95;;;8.82;;
21233;SDS011;10774;42.178;26.578;2023-11-21T13:38:13;11.07;;;7.28;;
21233;SDS011;10774;42.178;26.578;2023-11-21T13:40:42;15.38;;;7.32;;
21233;SDS011;10774;42.178;26.578;2023-11-21T13:43:17;13.32;;;7.60;;
21233;SDS011;10774;42.178;26.578;2023-11-21T13:45:44;12.27;;;8.10;;
21233;SDS011;10774;42.178;26.578;2023-11-21T13:48:11;14.52;;;8.90;;
21233;SDS011;10774;42.178;26.578;2023-11-21T13:50:42;15.98;;;9.75;;
21233;SDS011;10774;42.178;26.578;2023-11-21T13:53:34;14.27;;;10.50;;
21233;SDS011;10774;42.178;26.578;2023-11-21T13:56:02;13.88;;;10.20;;
21233;SDS011;10774;42.178;26.578;2023-11-21T13:58:28;16.05;;;9.80;;
21233;SDS011;10774;42.178;26.578;2023-11-21T14:01:08;16.40;;;9.65;;
21233;SDS011;10774;42.178;26.578;2023-11-21T14:03:52;15.48;;;9.93;;
21233;SDS011;10774;42.178;26.578;2023-11-21T14:06:22;16.10;;;10.77;;
21233;SDS011;10774;42.178;26.578;2023-11-21T14:08:55;15.85;;;11.18;;
21233;SDS011;10774;42.178;26.578;2023-11-21T14:11:21;16.70;;;10.18;;
21233;SDS011;10774;42.178;26.578;2023-11-21T14:13:47;13.00;;;8.05;;
21233;SDS011;10774;42.178;26.578;2023-11-21T14:16:13;13.13;;;9.02;;
21233;SDS011;10774;42.178;26.578;2023-11-21T14:18:39;16.90;;;10.10;;
21233;SDS011;10774;42.178;26.578;2023-11-21T14:21:20;21.30;;;8.70;;
21233;SDS011;10774;42.178;26.578;2023-11-21T14:23:46;14.45;;;8.88;;
21233;SDS011;10774;42.178;26.578;2023-11-21T14:26:13;15.13;;;10.30;;
21233;SDS011;10774;42.178;26.578;2023-11-21T14:28:40;12.48;;;8.95;;
21233;SDS011;10774;42.178;26.578;2023-11-21T14:31:06;14.18;;;8.98;;
21233;SDS011;10774;42.178;26.578;2023-11-21T14:33:32;12.50;;;9.57;;